sensor_id;sensor_type;location;lat;lon;timestamp;P1;durP1;ratioP1;P2;durP2;ratioP2
47764;SDS011;33529;49.242;8.670;2023-02-23T00:01:23;18.83;;;10.82;;
47764;SDS011;33529;49.242;8.670;2023-02-23T00:03:55;17.55;;;10.93;;
47764;SDS011;33529;49.242;8.670;2023-02-23T00:08:51;23.17;;;11.65;;
47764;SDS011;33529;49.242;8.670;2023-02-23T00:11:19;21.17;;;11.57;;
47764;SDS011;33529;49.242;8.670;2023-02-23T00:13:47;19.55;;;11.68;;
47764;SDS011;33529;49.242;8.670;2023-02-23T00:16:16;19.02;;;11.48;;
47764;SDS011;33529;49.242;8.670;2023-02-23T00:18:52;18.40;;;11.70;;
47764;SDS011;33529;49.242;8.670;2023-02-23T00:21:21;19.65;;;11.45;;
47764;SDS011;33529;49.242;8.670;2023-02-23T00:26:21;19.90;;;11.15;;
47764;SDS011;33529;49.242;8.670;2023-02-23T00:28:49;20.73;;;10.63;;
47764;SDS011;33529;49.242;8.670;2023-02-23T00:31:19;17.17;;;10.20;;
47764;SDS011;33529;49.242;8.670;2023-02-23T00:33:54;16.92;;;9.70;;
47764;SDS011;33529;49.242;8.670;2023-02-23T00:36:28;17.92;;;9.63;;
47764;SDS011;33529;49.242;8.670;2023-02-23T00:38:58;22.73;;;11.45;;
47764;SDS011;33529;49.242;8.670;2023-02-23T00:41:27;18.55;;;10.52;;
47764;SDS011;33529;49.242;8.670;2023-02-23T00:43:55;18.42;;;12.15;;
47764;SDS011;33529;49.242;8.670;2023-02-23T00:46:26;18.80;;;10.77;;
47764;SDS011;33529;49.242;8.670;2023-02-23T00:48:56;20.60;;;10.63;;
47764;SDS011;33529;49.242;8.670;2023-02-23T00:51:24;18.38;;;10.25;;
47764;SDS011;33529;49.242;8.670;2023-02-23T00:53:56;18.42;;;9.90;;
47764;SDS011;33529;49.242;8.670;2023-02-23T00:56:24;18.58;;;11.13;;
47764;SDS011;33529;49.242;8.670;2023-02-23T00:58:52;19.92;;;10.60;;
47764;SDS011;33529;49.242;8.670;2023-02-23T01:01:19;18.73;;;10.43;;
47764;SDS011;33529;49.242;8.670;2023-02-23T01:03:49;18.45;;;10.68;;
47764;SDS011;33529;49.242;8.670;2023-02-23T01:06:18;17.15;;;9.30;;
47764;SDS011;33529;49.242;8.670;2023-02-23T01:08:45;17.48;;;10.25;;
47764;SDS011;33529;49.242;8.670;2023-02-23T01:11:18;15.15;;;9.35;;
47764;SDS011;33529;49.242;8.670;2023-02-23T01:13:47;20.88;;;12.15;;
47764;SDS011;33529;49.242;8.670;2023-02-23T01:16:17;17.35;;;10.23;;
47764;SDS011;33529;49.242;8.670;2023-02-23T01:18:47;17.67;;;9.95;;
47764;SDS011;33529;49.242;8.670;2023-02-23T01:21:22;20.35;;;11.10;;
47764;SDS011;33529;49.242;8.670;2023-02-23T01:23:51;18.77;;;10.02;;
47764;SDS011;33529;49.242;8.670;2023-02-23T01:26:19;22.17;;;11.32;;
47764;SDS011;33529;49.242;8.670;2023-02-23T01:29:03;21.95;;;12.30;;
47764;SDS011;33529;49.242;8.670;2023-02-23T01:31:36;23.17;;;11.30;;
47764;SDS011;33529;49.242;8.670;2023-02-23T01:34:04;22.08;;;11.48;;
47764;SDS011;33529;49.242;8.670;2023-02-23T01:36:33;18.63;;;10.13;;
47764;SDS011;33529;49.242;8.670;2023-02-23T01:39:02;21.83;;;11.40;;
47764;SDS011;33529;49.242;8.670;2023-02-23T01:41:32;17.15;;;10.25;;
47764;SDS011;33529;49.242;8.670;2023-02-23T01:46:30;18.50;;;10.80;;
47764;SDS011;33529;49.242;8.670;2023-02-23T01:48:59;22.67;;;11.65;;
47764;SDS011;33529;49.242;8.670;2023-02-23T01:51:29;19.42;;;11.55;;
47764;SDS011;33529;49.242;8.670;2023-02-23T01:54:01;19.50;;;11.25;;
47764;SDS011;33529;49.242;8.670;2023-02-23T01:56:35;22.88;;;11.88;;
47764;SDS011;33529;49.242;8.670;2023-02-23T01:59:08;22.58;;;11.90;;
47764;SDS011;33529;49.242;8.670;2023-02-23T02:01:38;24.50;;;12.63;;
47764;SDS011;33529;49.242;8.670;2023-02-23T02:04:06;21.85;;;12.02;;
47764;SDS011;33529;49.242;8.670;2023-02-23T02:06:34;16.38;;;10.32;;
47764;SDS011;33529;49.242;8.670;2023-02-23T02:09:07;20.92;;;12.02;;
47764;SDS011;33529;49.242;8.670;2023-02-23T02:11:42;22.73;;;11.35;;
47764;SDS011;33529;49.242;8.670;2023-02-23T02:14:16;25.05;;;11.95;;
47764;SDS011;33529;49.242;8.670;2023-02-23T02:17:11;18.85;;;11.52;;
47764;SDS011;33529;49.242;8.670;2023-02-23T02:34:27;20.50;;;11.65;;
47764;SDS011;33529;49.242;8.670;2023-02-23T02:37:07;21.58;;;11.48;;
47764;SDS011;33529;49.242;8.670;2023-02-23T02:39:58;22.77;;;12.50;;
47764;SDS011;33529;49.242;8.670;2023-02-23T02:42:57;17.52;;;10.35;;
47764;SDS011;33529;49.242;8.670;2023-02-23T02:46:05;18.60;;;10.68;;
47764;SDS011;33529;49.242;8.670;2023-02-23T02:52:02;19.38;;;11.75;;
47764;SDS011;33529;49.242;8.670;2023-02-23T02:54:38;18.48;;;10.48;;
47764;SDS011;33529;49.242;8.670;2023-02-23T02:57:10;18.40;;;11.10;;
47764;SDS011;33529;49.242;8.670;2023-02-23T02:59:46;22.80;;;12.20;;
47764;SDS011;33529;49.242;8.670;2023-02-23T03:02:35;18.50;;;11.15;;
47764;SDS011;33529;49.242;8.670;2023-02-23T03:08:40;23.55;;;10.95;;
47764;SDS011;33529;49.242;8.670;2023-02-23T03:11:31;20.63;;;11.80;;
47764;SDS011;33529;49.242;8.670;2023-02-23T03:17:34;20.30;;;11.05;;
47764;SDS011;33529;49.242;8.670;2023-02-23T03:26:30;20.67;;;10.80;;
47764;SDS011;33529;49.242;8.670;2023-02-23T03:35:12;21.23;;;11.30;;
47764;SDS011;33529;49.242;8.670;2023-02-23T03:41:14;24.20;;;12.38;;
47764;SDS011;33529;49.242;8.670;2023-02-23T03:44:12;21.15;;;12.20;;
47764;SDS011;33529;49.242;8.670;2023-02-23T03:47:02;19.45;;;11.38;;
47764;SDS011;33529;49.242;8.670;2023-02-23T03:49:50;20.95;;;11.95;;
47764;SDS011;33529;49.242;8.670;2023-02-23T03:52:42;22.52;;;11.85;;
47764;SDS011;33529;49.242;8.670;2023-02-23T03:55:33;21.13;;;12.88;;
47764;SDS011;33529;49.242;8.670;2023-02-23T03:58:24;19.95;;;11.75;;
47764;SDS011;33529;49.242;8.670;2023-02-23T04:01:17;24.40;;;11.85;;
47764;SDS011;33529;49.242;8.670;2023-02-23T04:04:05;23.58;;;13.02;;
47764;SDS011;33529;49.242;8.670;2023-02-23T04:06:53;21.10;;;11.45;;
47764;SDS011;33529;49.242;8.670;2023-02-23T04:09:43;19.75;;;11.90;;
47764;SDS011;33529;49.242;8.670;2023-02-23T04:15:32;22.70;;;12.77;;
47764;SDS011;33529;49.242;8.670;2023-02-23T04:18:06;21.52;;;12.23;;
47764;SDS011;33529;49.242;8.670;2023-02-23T04:20:37;22.45;;;12.02;;
47764;SDS011;33529;49.242;8.670;2023-02-23T04:23:04;22.65;;;12.45;;
47764;SDS011;33529;49.242;8.670;2023-02-23T04:25:31;21.90;;;11.55;;
47764;SDS011;33529;49.242;8.670;2023-02-23T04:27:57;24.70;;;11.23;;
47764;SDS011;33529;49.242;8.670;2023-02-23T04:30:24;22.42;;;11.45;;
47764;SDS011;33529;49.242;8.670;2023-02-23T04:32:54;21.40;;;12.63;;
47764;SDS011;33529;49.242;8.670;2023-02-23T04:35:21;22.15;;;12.35;;
47764;SDS011;33529;49.242;8.670;2023-02-23T04:37:48;18.50;;;12.05;;
47764;SDS011;33529;49.242;8.670;2023-02-23T04:40:15;20.90;;;12.07;;
47764;SDS011;33529;49.242;8.670;2023-02-23T04:42:42;22.23;;;11.75;;
47764;SDS011;33529;49.242;8.670;2023-02-23T04:45:09;19.30;;;10.52;;
47764;SDS011;33529;49.242;8.670;2023-02-23T04:47:36;19.15;;;10.43;;
47764;SDS011;33529;49.242;8.670;2023-02-23T04:50:03;22.75;;;12.20;;
47764;SDS011;33529;49.242;8.670;2023-02-23T04:52:30;19.67;;;11.38;;
47764;SDS011;33529;49.242;8.670;2023-02-23T04:54:58;20.00;;;11.35;;
47764;SDS011;33529;49.242;8.670;2023-02-23T04:57:24;21.35;;;12.48;;
47764;SDS011;33529;49.242;8.670;2023-02-23T04:59:52;19.13;;;10.95;;
47764;SDS011;33529;49.242;8.670;2023-02-23T05:02:19;19.83;;;11.25;;
47764;SDS011;33529;49.242;8.670;2023-02-23T05:04:46;19.80;;;11.40;;
47764;SDS011;33529;49.242;8.670;2023-02-23T05:07:13;19.77;;;10.70;;
47764;SDS011;33529;49.242;8.670;2023-02-23T05:09:40;20.17;;;11.27;;
47764;SDS011;33529;49.242;8.670;2023-02-23T05:12:07;23.38;;;10.70;;
47764;SDS011;33529;49.242;8.670;2023-02-23T05:14:33;21.60;;;11.65;;
47764;SDS011;33529;49.242;8.670;2023-02-23T05:17:00;22.10;;;12.05;;
47764;SDS011;33529;49.242;8.670;2023-02-23T05:19:27;19.50;;;11.50;;
47764;SDS011;33529;49.242;8.670;2023-02-23T05:21:54;15.57;;;9.98;;
47764;SDS011;33529;49.242;8.670;2023-02-23T05:24:20;26.95;;;11.95;;
47764;SDS011;33529;49.242;8.670;2023-02-23T05:26:47;19.70;;;11.10;;
47764;SDS011;33529;49.242;8.670;2023-02-23T05:29:15;19.50;;;11.25;;
47764;SDS011;33529;49.242;8.670;2023-02-23T05:31:41;15.38;;;9.57;;
47764;SDS011;33529;49.242;8.670;2023-02-23T05:34:08;20.52;;;11.43;;
47764;SDS011;33529;49.242;8.670;2023-02-23T05:36:35;18.52;;;11.13;;
47764;SDS011;33529;49.242;8.670;2023-02-23T05:39:03;18.80;;;11.48;;
47764;SDS011;33529;49.242;8.670;2023-02-23T05:41:29;19.58;;;11.52;;
47764;SDS011;33529;49.242;8.670;2023-02-23T05:43:57;17.60;;;10.82;;
47764;SDS011;33529;49.242;8.670;2023-02-23T05:46:24;19.95;;;11.07;;
47764;SDS011;33529;49.242;8.670;2023-02-23T05:48:56;18.48;;;10.93;;
47764;SDS011;33529;49.242;8.670;2023-02-23T05:51:24;18.85;;;11.35;;
47764;SDS011;33529;49.242;8.670;2023-02-23T05:53:52;16.17;;;8.98;;
47764;SDS011;33529;49.242;8.670;2023-02-23T05:56:19;19.30;;;10.73;;
47764;SDS011;33529;49.242;8.670;2023-02-23T05:58:47;16.98;;;10.48;;
47764;SDS011;33529;49.242;8.670;2023-02-23T06:01:15;15.98;;;9.25;;
47764;SDS011;33529;49.242;8.670;2023-02-23T06:03:43;19.38;;;10.00;;
47764;SDS011;33529;49.242;8.670;2023-02-23T06:06:11;19.38;;;9.63;;
47764;SDS011;33529;49.242;8.670;2023-02-23T06:08:38;17.98;;;11.35;;
47764;SDS011;33529;49.242;8.670;2023-02-23T06:11:05;16.25;;;9.60;;
47764;SDS011;33529;49.242;8.670;2023-02-23T06:13:32;18.73;;;10.65;;
47764;SDS011;33529;49.242;8.670;2023-02-23T06:15:58;15.95;;;9.77;;
47764;SDS011;33529;49.242;8.670;2023-02-23T06:18:26;15.98;;;10.15;;
47764;SDS011;33529;49.242;8.670;2023-02-23T06:20:53;15.02;;;9.57;;
47764;SDS011;33529;49.242;8.670;2023-02-23T06:23:20;19.52;;;10.43;;
47764;SDS011;33529;49.242;8.670;2023-02-23T06:25:47;14.55;;;9.13;;
47764;SDS011;33529;49.242;8.670;2023-02-23T06:28:13;18.80;;;9.73;;
47764;SDS011;33529;49.242;8.670;2023-02-23T06:30:40;15.52;;;9.23;;
47764;SDS011;33529;49.242;8.670;2023-02-23T06:33:07;17.92;;;9.68;;
47764;SDS011;33529;49.242;8.670;2023-02-23T06:35:35;17.27;;;10.13;;
47764;SDS011;33529;49.242;8.670;2023-02-23T06:38:02;23.48;;;10.50;;
47764;SDS011;33529;49.242;8.670;2023-02-23T06:40:29;13.93;;;8.98;;
47764;SDS011;33529;49.242;8.670;2023-02-23T06:42:55;16.58;;;8.65;;
47764;SDS011;33529;49.242;8.670;2023-02-23T06:45:22;12.82;;;9.48;;
47764;SDS011;33529;49.242;8.670;2023-02-23T06:47:49;16.58;;;8.70;;
47764;SDS011;33529;49.242;8.670;2023-02-23T06:50:17;18.20;;;9.05;;
47764;SDS011;33529;49.242;8.670;2023-02-23T06:52:44;20.42;;;10.50;;
47764;SDS011;33529;49.242;8.670;2023-02-23T06:55:11;15.52;;;9.90;;
47764;SDS011;33529;49.242;8.670;2023-02-23T06:57:41;15.75;;;9.65;;
47764;SDS011;33529;49.242;8.670;2023-02-23T07:00:10;18.52;;;10.55;;
47764;SDS011;33529;49.242;8.670;2023-02-23T07:02:42;16.48;;;9.82;;
47764;SDS011;33529;49.242;8.670;2023-02-23T07:05:11;15.18;;;9.05;;
47764;SDS011;33529;49.242;8.670;2023-02-23T07:07:38;21.90;;;10.30;;
47764;SDS011;33529;49.242;8.670;2023-02-23T07:10:05;19.27;;;9.65;;
47764;SDS011;33529;49.242;8.670;2023-02-23T07:12:32;17.58;;;10.68;;
47764;SDS011;33529;49.242;8.670;2023-02-23T07:14:59;17.85;;;9.20;;
47764;SDS011;33529;49.242;8.670;2023-02-23T07:17:25;14.20;;;8.38;;
47764;SDS011;33529;49.242;8.670;2023-02-23T07:19:52;13.35;;;9.18;;
47764;SDS011;33529;49.242;8.670;2023-02-23T07:22:19;14.30;;;9.30;;
47764;SDS011;33529;49.242;8.670;2023-02-23T07:24:47;15.68;;;9.30;;
47764;SDS011;33529;49.242;8.670;2023-02-23T07:27:14;17.83;;;10.55;;
47764;SDS011;33529;49.242;8.670;2023-02-23T07:29:40;17.05;;;9.18;;
47764;SDS011;33529;49.242;8.670;2023-02-23T07:32:07;20.35;;;9.90;;
47764;SDS011;33529;49.242;8.670;2023-02-23T07:34:36;16.48;;;9.40;;
47764;SDS011;33529;49.242;8.670;2023-02-23T07:37:04;20.92;;;9.77;;
47764;SDS011;33529;49.242;8.670;2023-02-23T07:39:31;16.20;;;8.32;;
47764;SDS011;33529;49.242;8.670;2023-02-23T07:41:57;18.00;;;10.52;;
47764;SDS011;33529;49.242;8.670;2023-02-23T07:44:24;15.68;;;9.15;;
47764;SDS011;33529;49.242;8.670;2023-02-23T07:46:51;15.45;;;9.48;;
47764;SDS011;33529;49.242;8.670;2023-02-23T07:49:18;15.85;;;9.05;;
47764;SDS011;33529;49.242;8.670;2023-02-23T07:51:45;15.52;;;9.82;;
47764;SDS011;33529;49.242;8.670;2023-02-23T07:54:12;15.95;;;9.90;;
47764;SDS011;33529;49.242;8.670;2023-02-23T07:56:40;13.05;;;8.30;;
47764;SDS011;33529;49.242;8.670;2023-02-23T07:59:07;15.88;;;8.68;;
47764;SDS011;33529;49.242;8.670;2023-02-23T08:01:34;17.52;;;9.43;;
47764;SDS011;33529;49.242;8.670;2023-02-23T08:04:01;17.48;;;10.60;;
47764;SDS011;33529;49.242;8.670;2023-02-23T08:06:28;17.38;;;10.07;;
47764;SDS011;33529;49.242;8.670;2023-02-23T08:08:57;15.25;;;9.32;;
47764;SDS011;33529;49.242;8.670;2023-02-23T08:11:25;12.98;;;9.27;;
47764;SDS011;33529;49.242;8.670;2023-02-23T08:13:55;15.65;;;9.55;;
47764;SDS011;33529;49.242;8.670;2023-02-23T08:16:28;14.82;;;8.65;;
47764;SDS011;33529;49.242;8.670;2023-02-23T08:18:56;15.82;;;8.45;;
47764;SDS011;33529;49.242;8.670;2023-02-23T08:21:24;16.65;;;9.35;;
47764;SDS011;33529;49.242;8.670;2023-02-23T08:23:51;17.73;;;9.95;;
47764;SDS011;33529;49.242;8.670;2023-02-23T08:26:17;14.73;;;9.18;;
47764;SDS011;33529;49.242;8.670;2023-02-23T08:28:44;12.98;;;8.50;;
47764;SDS011;33529;49.242;8.670;2023-02-23T08:31:12;18.48;;;9.07;;
47764;SDS011;33529;49.242;8.670;2023-02-23T08:33:41;16.67;;;8.68;;
47764;SDS011;33529;49.242;8.670;2023-02-23T08:36:08;14.65;;;8.15;;
47764;SDS011;33529;49.242;8.670;2023-02-23T08:38:35;14.07;;;7.50;;
47764;SDS011;33529;49.242;8.670;2023-02-23T08:41:05;12.88;;;7.97;;
47764;SDS011;33529;49.242;8.670;2023-02-23T08:43:32;13.85;;;9.63;;
47764;SDS011;33529;49.242;8.670;2023-02-23T08:45:58;13.30;;;8.02;;
47764;SDS011;33529;49.242;8.670;2023-02-23T08:48:25;12.43;;;8.10;;
47764;SDS011;33529;49.242;8.670;2023-02-23T08:50:55;15.93;;;9.07;;
47764;SDS011;33529;49.242;8.670;2023-02-23T08:53:23;15.07;;;8.07;;
47764;SDS011;33529;49.242;8.670;2023-02-23T08:55:59;14.25;;;8.18;;
47764;SDS011;33529;49.242;8.670;2023-02-23T08:58:28;13.75;;;7.57;;
47764;SDS011;33529;49.242;8.670;2023-02-23T09:00:56;16.00;;;8.23;;
47764;SDS011;33529;49.242;8.670;2023-02-23T09:03:23;14.10;;;8.60;;
47764;SDS011;33529;49.242;8.670;2023-02-23T09:05:51;14.80;;;8.45;;
47764;SDS011;33529;49.242;8.670;2023-02-23T09:08:18;16.33;;;8.98;;
47764;SDS011;33529;49.242;8.670;2023-02-23T09:10:45;17.10;;;9.95;;
47764;SDS011;33529;49.242;8.670;2023-02-23T09:13:14;17.27;;;8.45;;
47764;SDS011;33529;49.242;8.670;2023-02-23T09:15:42;14.02;;;8.00;;
47764;SDS011;33529;49.242;8.670;2023-02-23T09:18:09;13.73;;;8.05;;
47764;SDS011;33529;49.242;8.670;2023-02-23T09:20:42;13.00;;;7.93;;
47764;SDS011;33529;49.242;8.670;2023-02-23T09:23:10;11.15;;;7.20;;
47764;SDS011;33529;49.242;8.670;2023-02-23T09:25:38;13.70;;;7.68;;
47764;SDS011;33529;49.242;8.670;2023-02-23T09:28:13;10.82;;;7.55;;
47764;SDS011;33529;49.242;8.670;2023-02-23T09:30:41;11.50;;;6.70;;
47764;SDS011;33529;49.242;8.670;2023-02-23T09:33:09;13.27;;;6.90;;
47764;SDS011;33529;49.242;8.670;2023-02-23T09:35:36;9.88;;;5.95;;
47764;SDS011;33529;49.242;8.670;2023-02-23T09:38:03;11.88;;;5.90;;
47764;SDS011;33529;49.242;8.670;2023-02-23T09:40:48;11.93;;;6.55;;
47764;SDS011;33529;49.242;8.670;2023-02-23T09:46:13;13.63;;;7.10;;
47764;SDS011;33529;49.242;8.670;2023-02-23T09:48:49;12.60;;;6.82;;
47764;SDS011;33529;49.242;8.670;2023-02-23T09:51:18;13.07;;;7.60;;
47764;SDS011;33529;49.242;8.670;2023-02-23T09:53:51;10.60;;;6.90;;
47764;SDS011;33529;49.242;8.670;2023-02-23T09:56:36;11.18;;;5.78;;
47764;SDS011;33529;49.242;8.670;2023-02-23T09:59:17;9.77;;;5.05;;
47764;SDS011;33529;49.242;8.670;2023-02-23T10:04:18;10.13;;;4.93;;
47764;SDS011;33529;49.242;8.670;2023-02-23T10:06:52;8.00;;;4.30;;
47764;SDS011;33529;49.242;8.670;2023-02-23T10:09:43;8.65;;;5.38;;
47764;SDS011;33529;49.242;8.670;2023-02-23T10:15:14;7.22;;;4.82;;
47764;SDS011;33529;49.242;8.670;2023-02-23T10:20:57;7.93;;;4.25;;
47764;SDS011;33529;49.242;8.670;2023-02-23T10:23:40;8.55;;;4.65;;
47764;SDS011;33529;49.242;8.670;2023-02-23T10:26:17;11.35;;;4.72;;
47764;SDS011;33529;49.242;8.670;2023-02-23T10:29:02;7.68;;;5.15;;
47764;SDS011;33529;49.242;8.670;2023-02-23T10:31:39;8.63;;;4.95;;
47764;SDS011;33529;49.242;8.670;2023-02-23T10:34:14;8.07;;;4.65;;
47764;SDS011;33529;49.242;8.670;2023-02-23T10:36:47;10.63;;;5.05;;
47764;SDS011;33529;49.242;8.670;2023-02-23T10:39:24;6.68;;;3.60;;
47764;SDS011;33529;49.242;8.670;2023-02-23T10:41:52;7.35;;;3.97;;
47764;SDS011;33529;49.242;8.670;2023-02-23T10:44:20;8.25;;;3.67;;
47764;SDS011;33529;49.242;8.670;2023-02-23T10:46:57;8.25;;;4.50;;
47764;SDS011;33529;49.242;8.670;2023-02-23T10:49:34;7.17;;;3.80;;
47764;SDS011;33529;49.242;8.670;2023-02-23T10:52:09;9.38;;;4.30;;
47764;SDS011;33529;49.242;8.670;2023-02-23T10:54:42;6.50;;;3.50;;
47764;SDS011;33529;49.242;8.670;2023-02-23T10:57:23;8.20;;;4.50;;
47764;SDS011;33529;49.242;8.670;2023-02-23T11:02:42;6.68;;;3.38;;
47764;SDS011;33529;49.242;8.670;2023-02-23T11:10:58;5.85;;;2.92;;
47764;SDS011;33529;49.242;8.670;2023-02-23T11:13:26;6.63;;;3.00;;
47764;SDS011;33529;49.242;8.670;2023-02-23T11:16:24;6.65;;;2.67;;
47764;SDS011;33529;49.242;8.670;2023-02-23T11:21:47;7.47;;;3.00;;
47764;SDS011;33529;49.242;8.670;2023-02-23T11:24:26;4.57;;;2.08;;
47764;SDS011;33529;49.242;8.670;2023-02-23T11:26:59;4.25;;;2.17;;
47764;SDS011;33529;49.242;8.670;2023-02-23T11:32:12;6.32;;;2.88;;
47764;SDS011;33529;49.242;8.670;2023-02-23T11:34:46;5.25;;;3.03;;
47764;SDS011;33529;49.242;8.670;2023-02-23T11:37:33;6.70;;;3.08;;
47764;SDS011;33529;49.242;8.670;2023-02-23T11:40:07;5.38;;;3.33;;
47764;SDS011;33529;49.242;8.670;2023-02-23T11:45:37;5.53;;;3.05;;
47764;SDS011;33529;49.242;8.670;2023-02-23T11:48:18;5.85;;;4.00;;
47764;SDS011;33529;49.242;8.670;2023-02-23T11:50:59;7.18;;;3.47;;
47764;SDS011;33529;49.242;8.670;2023-02-23T11:55:54;6.45;;;3.05;;
47764;SDS011;33529;49.242;8.670;2023-02-23T11:58:26;5.45;;;3.30;;
47764;SDS011;33529;49.242;8.670;2023-02-23T12:01:10;4.57;;;3.22;;
47764;SDS011;33529;49.242;8.670;2023-02-23T12:03:43;7.75;;;2.70;;
47764;SDS011;33529;49.242;8.670;2023-02-23T12:06:10;5.95;;;2.67;;
47764;SDS011;33529;49.242;8.670;2023-02-23T12:08:44;5.03;;;2.85;;
47764;SDS011;33529;49.242;8.670;2023-02-23T12:11:16;5.15;;;2.85;;
47764;SDS011;33529;49.242;8.670;2023-02-23T12:13:51;6.90;;;3.35;;
47764;SDS011;33529;49.242;8.670;2023-02-23T12:16:42;6.07;;;2.65;;
47764;SDS011;33529;49.242;8.670;2023-02-23T12:21:55;5.03;;;2.10;;
47764;SDS011;33529;49.242;8.670;2023-02-23T12:24:44;5.97;;;2.65;;
47764;SDS011;33529;49.242;8.670;2023-02-23T12:29:59;6.07;;;3.17;;
47764;SDS011;33529;49.242;8.670;2023-02-23T12:32:33;6.55;;;2.67;;
47764;SDS011;33529;49.242;8.670;2023-02-23T12:43:47;4.38;;;2.45;;
47764;SDS011;33529;49.242;8.670;2023-02-23T12:46:21;4.70;;;2.78;;
47764;SDS011;33529;49.242;8.670;2023-02-23T12:48:59;5.95;;;2.83;;
47764;SDS011;33529;49.242;8.670;2023-02-23T12:51:35;5.68;;;3.00;;
47764;SDS011;33529;49.242;8.670;2023-02-23T12:54:08;3.88;;;2.28;;
47764;SDS011;33529;49.242;8.670;2023-02-23T12:59:21;6.10;;;2.60;;
47764;SDS011;33529;49.242;8.670;2023-02-23T13:07:53;6.43;;;2.38;;
47764;SDS011;33529;49.242;8.670;2023-02-23T13:13:43;5.78;;;3.00;;
47764;SDS011;33529;49.242;8.670;2023-02-23T13:21:53;6.72;;;3.03;;
47764;SDS011;33529;49.242;8.670;2023-02-23T13:24:41;5.15;;;2.67;;
47764;SDS011;33529;49.242;8.670;2023-02-23T13:29:46;6.30;;;2.60;;
47764;SDS011;33529;49.242;8.670;2023-02-23T13:32:15;5.20;;;2.10;;
47764;SDS011;33529;49.242;8.670;2023-02-23T13:34:55;5.43;;;2.10;;
47764;SDS011;33529;49.242;8.670;2023-02-23T13:37:31;4.68;;;2.10;;
47764;SDS011;33529;49.242;8.670;2023-02-23T13:40:21;7.70;;;2.35;;
47764;SDS011;33529;49.242;8.670;2023-02-23T13:48:18;3.63;;;1.92;;
47764;SDS011;33529;49.242;8.670;2023-02-23T13:53:27;4.00;;;1.95;;
47764;SDS011;33529;49.242;8.670;2023-02-23T13:56:05;3.15;;;1.92;;
47764;SDS011;33529;49.242;8.670;2023-02-23T13:58:44;4.80;;;2.10;;
47764;SDS011;33529;49.242;8.670;2023-02-23T14:01:15;4.70;;;2.20;;
47764;SDS011;33529;49.242;8.670;2023-02-23T14:03:50;3.92;;;1.88;;
47764;SDS011;33529;49.242;8.670;2023-02-23T14:06:20;5.40;;;2.63;;
47764;SDS011;33529;49.242;8.670;2023-02-23T14:08:51;3.25;;;1.83;;
47764;SDS011;33529;49.242;8.670;2023-02-23T14:11:28;4.63;;;2.17;;
47764;SDS011;33529;49.242;8.670;2023-02-23T14:14:36;3.45;;;2.00;;
47764;SDS011;33529;49.242;8.670;2023-02-23T14:19:42;4.95;;;2.15;;
47764;SDS011;33529;49.242;8.670;2023-02-23T14:22:29;5.03;;;2.45;;
47764;SDS011;33529;49.242;8.670;2023-02-23T14:27:59;4.78;;;2.28;;
47764;SDS011;33529;49.242;8.670;2023-02-23T14:30:28;4.85;;;2.25;;
47764;SDS011;33529;49.242;8.670;2023-02-23T14:33:32;7.47;;;2.60;;
47764;SDS011;33529;49.242;8.670;2023-02-23T14:36:01;6.05;;;2.78;;
47764;SDS011;33529;49.242;8.670;2023-02-23T14:38:29;4.88;;;2.25;;
47764;SDS011;33529;49.242;8.670;2023-02-23T14:41:12;7.22;;;2.67;;
47764;SDS011;33529;49.242;8.670;2023-02-23T14:43:40;4.53;;;2.60;;
47764;SDS011;33529;49.242;8.670;2023-02-23T14:46:10;4.70;;;2.38;;
47764;SDS011;33529;49.242;8.670;2023-02-23T14:48:43;4.75;;;2.00;;
47764;SDS011;33529;49.242;8.670;2023-02-23T14:54:11;5.68;;;2.50;;
47764;SDS011;33529;49.242;8.670;2023-02-23T14:56:51;4.00;;;2.57;;
47764;SDS011;33529;49.242;8.670;2023-02-23T14:59:21;4.57;;;2.38;;
47764;SDS011;33529;49.242;8.670;2023-02-23T15:01:49;4.78;;;2.13;;
47764;SDS011;33529;49.242;8.670;2023-02-23T15:04:26;5.63;;;2.13;;
47764;SDS011;33529;49.242;8.670;2023-02-23T15:06:56;4.35;;;2.22;;
47764;SDS011;33529;49.242;8.670;2023-02-23T15:09:39;6.53;;;2.78;;
47764;SDS011;33529;49.242;8.670;2023-02-23T15:12:12;3.92;;;2.13;;
47764;SDS011;33529;49.242;8.670;2023-02-23T15:14:42;4.05;;;2.30;;
47764;SDS011;33529;49.242;8.670;2023-02-23T15:17:11;5.28;;;2.92;;
47764;SDS011;33529;49.242;8.670;2023-02-23T15:19:41;4.05;;;2.72;;
47764;SDS011;33529;49.242;8.670;2023-02-23T15:22:13;6.72;;;2.92;;
47764;SDS011;33529;49.242;8.670;2023-02-23T15:24:47;4.45;;;2.72;;
47764;SDS011;33529;49.242;8.670;2023-02-23T15:27:16;4.68;;;2.60;;
47764;SDS011;33529;49.242;8.670;2023-02-23T15:29:45;4.13;;;2.10;;
47764;SDS011;33529;49.242;8.670;2023-02-23T15:32:15;6.80;;;3.03;;
47764;SDS011;33529;49.242;8.670;2023-02-23T15:34:50;7.10;;;2.80;;
47764;SDS011;33529;49.242;8.670;2023-02-23T15:37:34;5.70;;;3.65;;
47764;SDS011;33529;49.242;8.670;2023-02-23T15:40:06;8.75;;;4.80;;
47764;SDS011;33529;49.242;8.670;2023-02-23T15:42:45;7.28;;;4.13;;
47764;SDS011;33529;49.242;8.670;2023-02-23T15:45:22;8.50;;;4.10;;
47764;SDS011;33529;49.242;8.670;2023-02-23T15:48:02;9.05;;;4.65;;
47764;SDS011;33529;49.242;8.670;2023-02-23T15:50:33;9.15;;;5.28;;
47764;SDS011;33529;49.242;8.670;2023-02-23T15:53:06;8.63;;;5.22;;
47764;SDS011;33529;49.242;8.670;2023-02-23T15:55:40;8.25;;;4.70;;
47764;SDS011;33529;49.242;8.670;2023-02-23T16:00:53;7.18;;;4.30;;
47764;SDS011;33529;49.242;8.670;2023-02-23T16:03:28;6.47;;;4.00;;
47764;SDS011;33529;49.242;8.670;2023-02-23T16:06:04;7.47;;;4.47;;
47764;SDS011;33529;49.242;8.670;2023-02-23T16:08:34;9.30;;;5.50;;
47764;SDS011;33529;49.242;8.670;2023-02-23T16:13:43;8.52;;;4.57;;
47764;SDS011;33529;49.242;8.670;2023-02-23T16:16:11;8.25;;;4.38;;
47764;SDS011;33529;49.242;8.670;2023-02-23T16:18:46;7.32;;;4.50;;
47764;SDS011;33529;49.242;8.670;2023-02-23T16:21:19;9.90;;;4.40;;
47764;SDS011;33529;49.242;8.670;2023-02-23T16:23:49;8.05;;;4.50;;
47764;SDS011;33529;49.242;8.670;2023-02-23T16:26:19;8.00;;;4.22;;
47764;SDS011;33529;49.242;8.670;2023-02-23T16:28:55;7.72;;;4.20;;
47764;SDS011;33529;49.242;8.670;2023-02-23T16:34:22;9.35;;;4.60;;
47764;SDS011;33529;49.242;8.670;2023-02-23T16:36:59;10.57;;;4.57;;
47764;SDS011;33529;49.242;8.670;2023-02-23T16:39:29;9.35;;;4.53;;
47764;SDS011;33529;49.242;8.670;2023-02-23T16:41:58;8.25;;;3.88;;
47764;SDS011;33529;49.242;8.670;2023-02-23T16:44:26;7.82;;;4.13;;
47764;SDS011;33529;49.242;8.670;2023-02-23T16:49:34;10.30;;;4.70;;
47764;SDS011;33529;49.242;8.670;2023-02-23T16:52:02;8.25;;;3.95;;
47764;SDS011;33529;49.242;8.670;2023-02-23T16:54:37;7.57;;;3.90;;
47764;SDS011;33529;49.242;8.670;2023-02-23T16:57:05;7.85;;;4.35;;
47764;SDS011;33529;49.242;8.670;2023-02-23T16:59:47;6.53;;;3.97;;
47764;SDS011;33529;49.242;8.670;2023-02-23T17:02:17;9.32;;;4.63;;
47764;SDS011;33529;49.242;8.670;2023-02-23T17:04:45;7.55;;;4.25;;
47764;SDS011;33529;49.242;8.670;2023-02-23T17:07:14;7.72;;;3.92;;
47764;SDS011;33529;49.242;8.670;2023-02-23T17:09:42;7.32;;;4.47;;
47764;SDS011;33529;49.242;8.670;2023-02-23T17:12:13;8.90;;;3.55;;
47764;SDS011;33529;49.242;8.670;2023-02-23T17:14:47;7.45;;;4.20;;
47764;SDS011;33529;49.242;8.670;2023-02-23T17:17:15;7.88;;;3.92;;
47764;SDS011;33529;49.242;8.670;2023-02-23T17:19:43;9.30;;;3.45;;
47764;SDS011;33529;49.242;8.670;2023-02-23T17:22:11;7.32;;;3.63;;
47764;SDS011;33529;49.242;8.670;2023-02-23T17:24:39;8.02;;;3.72;;
47764;SDS011;33529;49.242;8.670;2023-02-23T17:27:07;8.93;;;4.30;;
47764;SDS011;33529;49.242;8.670;2023-02-23T17:29:34;6.70;;;3.45;;